Time;durP1;ratioP1;P1;durP2;ratioP2;P2;SDS_P1;SDS_P2;PMS_P1;PMS_P2;Temp;Humidity;BMP_temperature;BMP_pressure;BME280_temperature;BME280_humidity;BME280_pressure;Samples;Min_cycle;Max_cycle;Signal;HPM_P1;HPM_P2
2022/01/27 00:01:33;;;;;;;35.70;18.63;;;;;;;-0.56;98.42;99444.06;5079433;28;20635;-70
2022/01/27 00:04:08;;;;;;;40.47;19.00;;;;;;;-0.47;99.10;99448.59;5079375;28;20488;-70
2022/01/27 00:06:36;;;;;;;40.77;20.37;;;;;;;-0.53;97.79;99444.66;5079400;28;20471;-70
2022/01/27 00:09:12;;;;;;;39.53;20.23;;;;;;;-0.69;98.75;99438.94;5079001;28;20426;-70
2022/01/27 00:11:42;;;;;;;42.87;19.93;;;;;;;-0.69;100.00;99433.72;5078887;28;20452;-70
2022/01/27 00:14:10;;;;;;;41.00;20.27;;;;;;;-0.69;99.19;99432.88;5079206;28;20425;-70
2022/01/27 00:16:41;;;;;;;42.80;20.90;;;;;;;-0.61;98.87;99433.97;5078797;28;20465;-70
2022/01/27 00:19:09;;;;;;;37.47;19.80;;;;;;;-0.61;99.43;99430.53;5079116;28;20948;-70
2022/01/27 00:21:35;;;;;;;43.57;20.90;;;;;;;-0.61;99.72;99436.59;5078257;28;20916;-70
2022/01/27 00:24:02;;;;;;;37.47;19.83;;;;;;;-0.65;99.00;99434.31;5078621;28;20860;-70
2022/01/27 00:26:29;;;;;;;36.30;19.87;;;;;;;-0.67;99.00;99431.81;5079029;28;20422;-70
2022/01/27 00:28:55;;;;;;;41.93;19.57;;;;;;;-0.71;98.92;99430.38;5078995;28;20714;-70
2022/01/27 00:31:23;;;;;;;37.60;19.57;;;;;;;-0.63;98.05;99433.25;5078780;28;20454;-70
2022/01/27 00:47:41;;;;;;;36.53;18.80;;;;;;;-0.48;96.80;99411.22;5078635;28;20389;-70
2022/01/27 00:50:08;;;;;;;34.03;18.57;;;;;;;-0.45;97.19;99413.56;5078434;28;20425;-70
2022/01/27 00:52:36;;;;;;;33.70;17.80;;;;;;;-0.53;97.16;99417.72;5078326;28;20441;-70
2022/01/27 00:55:02;;;;;;;34.20;19.00;;;;;;;-0.55;96.98;99415.22;5078286;28;20687;-70
2022/01/27 00:57:39;;;;;;;35.10;19.20;;;;;;;-0.54;96.58;99414.28;5078315;28;20461;-70
2022/01/27 01:00:08;;;;;;;33.50;18.13;;;;;;;-0.47;97.01;99428.53;5078079;28;20472;-70
2022/01/27 01:02:44;;;;;;;37.60;19.23;;;;;;;-0.39;97.15;99423.56;5078290;28;20201;-70
2022/01/27 01:05:26;;;;;;;32.67;18.43;;;;;;;-0.31;95.62;99429.00;5077955;28;20413;-70
2022/01/27 01:07:56;;;;;;;33.40;18.73;;;;;;;-0.15;95.21;99418.22;5078093;28;20193;-70
2022/01/27 01:16:08;;;;;;;31.13;18.10;;;;;;;-0.29;94.65;99416.69;5093862;27;20993;-69
2022/01/27 01:18:45;;;;;;;29.47;17.50;;;;;;;-0.26;94.34;99421.66;5093815;28;20527;-69
2022/01/27 01:21:34;;;;;;;35.17;18.47;;;;;;;-0.41;95.04;99417.63;5093664;28;20503;-69
2022/01/27 01:29:51;;;;;;;30.23;16.90;;;;;;;-0.32;94.71;99416.91;5093520;28;20940;-69
2022/01/27 01:32:27;;;;;;;28.87;16.17;;;;;;;-0.31;94.46;99422.97;5093227;28;20435;-69
2022/01/27 01:34:54;;;;;;;27.47;16.33;;;;;;;-0.34;94.43;99423.19;5093348;28;20460;-69
2022/01/27 01:37:21;;;;;;;30.73;17.97;;;;;;;-0.53;95.32;99413.31;5093570;28;20286;-69
2022/01/27 01:39:47;;;;;;;33.17;18.73;;;;;;;-0.53;95.11;99413.31;5093196;28;20433;-69
2022/01/27 01:42:13;;;;;;;29.70;16.67;;;;;;;-0.34;93.81;99418.81;5093390;28;20452;-69
2022/01/27 01:44:41;;;;;;;29.47;16.83;;;;;;;-0.50;94.43;99414.88;5093370;28;20428;-69
2022/01/27 01:47:08;;;;;;;30.07;16.03;;;;;;;-0.44;93.83;99419.63;5093328;28;20436;-69
2022/01/27 01:49:35;;;;;;;29.57;17.07;;;;;;;-0.49;95.22;99411.31;5092962;28;20432;-69
2022/01/27 01:52:08;;;;;;;26.07;16.70;;;;;;;-0.64;94.24;99410.69;5093233;28;20752;-69
2022/01/27 01:54:35;;;;;;;30.60;17.43;;;;;;;-0.58;94.96;99406.81;5093150;28;20479;-69
2022/01/27 01:57:01;;;;;;;32.13;17.23;;;;;;;-0.41;94.09;99403.72;5092851;28;20854;-69
2022/01/27 01:59:27;;;;;;;28.83;17.73;;;;;;;-0.48;95.46;99400.75;5093065;28;20432;-69
2022/01/27 02:01:54;;;;;;;31.43;17.07;;;;;;;-0.43;95.45;99396.00;5093011;28;20456;-69
2022/01/27 02:04:20;;;;;;;29.57;17.63;;;;;;;-0.41;96.29;99386.28;5093113;28;20466;-69
2022/01/27 02:06:51;;;;;;;27.47;16.47;;;;;;;-0.40;94.69;99385.31;5093115;28;20439;-69
2022/01/27 02:09:26;;;;;;;28.03;16.97;;;;;;;-0.35;95.08;99374.53;5092639;28;20741;-70
2022/01/27 02:20:08;;;;;;;27.23;16.90;;;;;;;-0.53;93.20;99363.69;5092537;28;20439;-69
2022/01/27 02:22:34;;;;;;;27.83;15.50;;;;;;;-0.58;92.60;99371.06;5092798;28;20444;-69
2022/01/27 02:25:00;;;;;;;25.63;15.27;;;;;;;-0.56;93.19;99366.56;5092741;28;20429;-69
2022/01/27 02:27:27;;;;;;;23.73;16.13;;;;;;;-0.45;92.94;99363.13;5079361;28;20422;-69
2022/01/27 02:29:53;;;;;;;29.13;17.07;;;;;;;-0.41;93.95;99360.13;5079092;28;20418;-69
2022/01/27 02:32:22;;;;;;;27.93;15.70;;;;;;;-0.39;92.66;99362.63;5079095;28;20432;-69
2022/01/27 02:34:48;;;;;;;26.13;16.30;;;;;;;-0.47;93.00;99368.47;5078940;28;20476;-69
2022/01/27 02:37:15;;;;;;;25.87;14.97;;;;;;;-0.46;91.84;99377.94;5078724;28;20871;-70
2022/01/27 02:39:42;;;;;;;27.13;15.90;;;;;;;-0.42;92.70;99368.94;5078996;28;20444;-69
2022/01/27 02:42:20;;;;;;;26.83;15.93;;;;;;;-0.37;92.98;99366.78;5078888;28;20460;-69
2022/01/27 02:44:47;;;;;;;24.20;15.87;;;;;;;-0.27;91.47;99362.50;5078922;28;20425;-69
2022/01/27 02:47:15;;;;;;;24.00;15.77;;;;;;;-0.26;90.48;99369.38;5078845;28;20425;-69
2022/01/27 02:49:41;;;;;;;26.63;16.10;;;;;;;-0.15;89.77;99368.56;5078466;28;20844;-69
2022/01/27 02:52:09;;;;;;;27.40;17.00;;;;;;;-0.35;91.41;99362.28;5078734;28;20524;-69
2022/01/27 02:54:36;;;;;;;24.73;15.87;;;;;;;-0.35;91.57;99358.84;5078673;28;20736;-69
2022/01/27 02:57:03;;;;;;;25.90;16.43;;;;;;;-0.33;91.85;99357.78;5078705;28;20422;-69
2022/01/27 02:59:30;;;;;;;24.60;15.33;;;;;;;-0.19;91.74;99373.19;5078670;28;20428;-69
2022/01/27 03:01:57;;;;;;;25.17;16.00;;;;;;;-0.30;89.97;99378.41;5078518;28;20461;-69
2022/01/27 03:04:25;;;;;;;26.00;16.57;;;;;;;-0.23;90.55;99384.00;5078188;28;20727;-69
2022/01/27 03:06:52;;;;;;;28.00;16.23;;;;;;;-0.15;90.52;99392.91;5078468;28;20413;-69
2022/01/27 03:09:18;;;;;;;26.00;15.50;;;;;;;-0.03;88.79;99391.13;5078153;28;20425;-69
2022/01/27 03:11:45;;;;;;;25.07;16.17;;;;;;;-0.22;89.61;99394.34;5078311;28;20453;-69
2022/01/27 03:14:13;;;;;;;26.10;15.07;;;;;;;-0.21;90.16;99398.59;5078071;28;20544;-69
2022/01/27 03:16:40;;;;;;;24.10;14.93;;;;;;;-0.27;90.07;99393.06;5078278;28;20430;-69
2022/01/27 03:19:07;;;;;;;26.73;16.03;;;;;;;-0.20;89.86;99394.22;5078275;28;20450;-69
2022/01/27 03:21:34;;;;;;;24.63;15.67;;;;;;;-0.28;90.14;99394.81;5077791;28;20453;-69
2022/01/27 03:24:01;;;;;;;25.13;15.40;;;;;;;-0.31;90.43;99382.00;5078159;28;20430;-69
2022/01/27 03:26:28;;;;;;;22.93;12.60;;;;;;;-0.36;90.21;99391.97;5078135;28;20413;-69
2022/01/27 03:28:55;;;;;;;23.87;15.63;;;;;;;-0.50;90.43;99381.75;5078010;28;20440;-69
2022/01/27 03:31:22;;;;;;;25.27;15.40;;;;;;;-0.45;90.55;99374.38;5077841;28;20460;-69
2022/01/27 03:33:48;;;;;;;21.90;14.30;;;;;;;-0.35;90.07;99377.94;5077969;28;20418;-69
2022/01/27 03:36:16;;;;;;;26.97;15.43;;;;;;;-0.30;90.72;99370.56;5077831;28;20532;-69
2022/01/27 03:38:42;;;;;;;26.70;16.07;;;;;;;-0.54;91.26;99367.25;5076900;28;20433;-69
2022/01/27 03:41:10;;;;;;;25.43;15.07;;;;;;;-0.55;92.77;99367.38;5077740;28;20456;-69
2022/01/27 03:43:38;;;;;;;26.10;15.13;;;;;;;-0.52;92.98;99357.53;5077420;28;20779;-69
2022/01/27 03:46:07;;;;;;;27.57;16.70;;;;;;;-0.54;92.99;99359.41;5077723;28;20488;-69
2022/01/27 03:48:33;;;;;;;25.60;15.90;;;;;;;-0.49;92.05;99362.50;5077662;28;20429;-69
2022/01/27 03:51:00;;;;;;;24.80;15.90;;;;;;;-0.34;92.53;99358.72;5077550;28;20620;-69
2022/01/27 03:53:26;;;;;;;25.13;14.87;;;;;;;-0.30;91.53;99364.53;5077368;28;20714;-69
2022/01/27 03:55:52;;;;;;;24.43;15.77;;;;;;;-0.38;90.30;99359.06;5077342;28;20484;-69
2022/01/27 03:58:19;;;;;;;24.37;15.37;;;;;;;-0.35;91.40;99357.03;5077367;28;20418;-69
2022/01/27 04:00:45;;;;;;;24.77;14.97;;;;;;;-0.44;91.45;99356.94;5077216;28;20449;-69
2022/01/27 04:03:14;;;;;;;23.50;15.40;;;;;;;-0.44;91.66;99351.72;5077274;28;20425;-69
2022/01/27 04:05:44;;;;;;;26.80;15.40;;;;;;;-0.48;90.68;99343.28;5077103;28;20188;-69
2022/01/27 04:08:12;;;;;;;23.80;14.97;;;;;;;-0.44;91.28;99339.47;5076898;28;20848;-69
2022/01/27 04:10:40;;;;;;;23.57;15.27;;;;;;;-0.44;91.24;99342.09;5077017;28;20224;-69
2022/01/27 04:13:07;;;;;;;24.50;15.30;;;;;;;-0.54;91.53;99330.69;5077125;28;20475;-69
2022/01/27 04:15:40;;;;;;;25.17;15.93;;;;;;;-0.53;91.08;99329.72;5076624;28;20539;-69
2022/01/27 04:18:07;;;;;;;24.33;15.70;;;;;;;-0.46;91.32;99330.09;5076826;28;20445;-69
2022/01/27 04:20:34;;;;;;;25.97;16.13;;;;;;;-0.53;91.70;99326.31;5076510;28;20903;-69
2022/01/27 04:23:00;;;;;;;25.23;16.60;;;;;;;-0.55;90.57;99320.34;5076843;28;20418;-69
2022/01/27 04:25:27;;;;;;;25.43;16.40;;;;;;;-0.72;89.42;99320.84;5076670;28;20539;-69
2022/01/27 04:27:58;;;;;;;23.10;15.30;;;;;;;-0.74;91.34;99315.75;5076829;28;20426;-69
2022/01/27 04:30:26;;;;;;;23.40;15.90;;;;;;;-0.65;90.26;99316.81;5076353;28;20900;-69
2022/01/27 04:32:55;;;;;;;26.27;16.67;;;;;;;-0.51;90.47;99303.50;5076479;28;20426;-69
2022/01/27 04:35:25;;;;;;;25.43;15.73;;;;;;;-0.54;90.33;99308.97;5076380;28;20548;-69
2022/01/27 04:37:59;;;;;;;26.27;17.17;;;;;;;-0.60;89.61;99317.28;5076499;28;20436;-69
2022/01/27 04:40:33;;;;;;;26.67;16.23;;;;;;;-0.50;90.24;99320.81;5076180;28;20491;-69
2022/01/27 04:43:07;;;;;;;27.93;16.97;;;;;;;-0.43;89.62;99317.66;5076309;28;20437;-69
2022/01/27 04:45:41;;;;;;;25.50;17.00;;;;;;;-0.46;88.88;99311.81;5076432;28;20185;-69
2022/01/27 04:48:12;;;;;;;24.40;16.23;;;;;;;-0.47;89.10;99315.38;5075953;28;20421;-69
2022/01/27 04:50:39;;;;;;;25.70;15.87;;;;;;;-0.40;88.24;99324.41;5076140;28;20548;-69
2022/01/27 04:53:10;;;;;;;27.23;16.77;;;;;;;-0.45;88.96;99321.31;5076420;28;20508;-70
2022/01/27 04:55:37;;;;;;;28.00;17.37;;;;;;;-0.43;89.69;99322.88;5075981;28;20916;-70
2022/01/27 04:58:14;;;;;;;28.37;17.70;;;;;;;-0.36;89.50;99320.59;5076324;28;20690;-70
2022/01/27 05:00:40;;;;;;;26.33;16.47;;;;;;;-0.45;88.95;99318.72;5075908;28;20821;-70
2022/01/27 05:03:16;;;;;;;25.20;16.67;;;;;;;-0.40;88.43;99317.38;5076314;28;20421;-70
2022/01/27 05:05:43;;;;;;;29.80;17.63;;;;;;;-0.51;89.06;99317.41;5076266;28;20429;-70
2022/01/27 05:08:15;;;;;;;28.73;18.33;;;;;;;-0.45;89.95;99319.53;5076197;28;20422;-69
2022/01/27 05:10:43;;;;;;;24.70;16.53;;;;;;;-0.47;89.76;99328.44;5076104;28;20460;-69
2022/01/27 05:13:14;;;;;;;28.90;18.83;;;;;;;-0.47;88.91;99312.75;5075807;28;20840;-69
2022/01/27 05:15:45;;;;;;;26.90;18.10;;;;;;;-0.41;88.76;99312.28;5075629;28;20966;-69
2022/01/27 05:18:12;;;;;;;24.87;16.33;;;;;;;-0.55;88.43;99308.13;5075620;28;20431;-69
2022/01/27 05:20:39;;;;;;;29.93;18.83;;;;;;;-0.53;88.89;99295.78;5075240;28;20913;-69
2022/01/27 05:23:06;;;;;;;29.40;17.37;;;;;;;-0.53;89.96;99289.75;5075618;28;20426;-70
2022/01/27 05:25:32;;;;;;;25.60;16.70;;;;;;;-0.52;89.31;99292.25;5076067;28;20421;-69
2022/01/27 05:27:59;;;;;;;29.47;17.57;;;;;;;-0.47;89.15;99290.09;5075804;28;20440;-69
2022/01/27 05:30:25;;;;;;;26.27;17.00;;;;;;;-0.52;89.02;99288.78;5075774;28;20480;-69
2022/01/27 05:32:52;;;;;;;25.23;16.20;;;;;;;-0.52;88.86;99289.63;5075588;28;20451;-69
2022/01/27 05:35:18;;;;;;;28.03;17.43;;;;;;;-0.59;89.42;99283.22;5075422;28;20480;-69
2022/01/27 05:37:45;;;;;;;24.80;15.53;;;;;;;-0.55;88.76;99284.63;5075741;28;20443;-69
2022/01/27 05:40:12;;;;;;;27.67;16.27;;;;;;;-0.61;88.74;99284.28;5074541;28;20861;-69
2022/01/27 05:42:38;;;;;;;24.97;15.70;;;;;;;-0.55;88.64;99299.47;5075164;28;20422;-69
2022/01/27 05:45:05;;;;;;;25.13;16.07;;;;;;;-0.58;89.34;99310.97;5074845;28;20727;-69
2022/01/27 05:47:32;;;;;;;26.23;16.00;;;;;;;-0.52;88.73;99300.06;5075440;28;20442;-69
2022/01/27 05:49:58;;;;;;;26.00;16.67;;;;;;;-0.32;88.10;99308.94;5075481;28;20193;-69
2022/01/27 05:52:25;;;;;;;25.77;16.30;;;;;;;-0.36;88.58;99318.00;5075666;28;20425;-69
2022/01/27 05:54:51;;;;;;;27.30;16.77;;;;;;;-0.37;88.32;99318.94;5075537;28;20520;-69
2022/01/27 05:57:17;;;;;;;23.77;16.10;;;;;;;-0.40;89.15;99312.16;5074985;28;20422;-69
2022/01/27 05:59:44;;;;;;;25.20;16.10;;;;;;;-0.46;88.06;99317.03;5075333;28;20424;-69
2022/01/27 06:02:10;;;;;;;30.00;17.80;;;;;;;-0.48;88.46;99309.34;5077376;28;20911;-69
2022/01/27 06:04:36;;;;;;;25.43;16.70;;;;;;;-0.33;87.94;99312.50;5078743;28;20418;-69
2022/01/27 06:07:03;;;;;;;26.03;16.87;;;;;;;-0.55;88.27;99310.75;5078874;28;20413;-69
2022/01/27 06:09:30;;;;;;;27.27;17.90;;;;;;;-0.69;89.08;99323.22;5078945;28;20425;-69
2022/01/27 06:11:56;;;;;;;30.03;18.53;;;;;;;-0.54;89.31;99322.03;5078883;28;20457;-69
2022/01/27 06:14:23;;;;;;;28.07;18.33;;;;;;;-0.57;88.70;99317.03;5078680;28;20449;-69
2022/01/27 06:16:51;;;;;;;27.53;17.73;;;;;;;-0.49;88.76;99320.72;5078315;28;20477;-70
2022/01/27 06:19:17;;;;;;;26.53;18.33;;;;;;;-0.58;87.78;99320.63;5078400;28;20448;-69
2022/01/27 06:21:44;;;;;;;29.37;18.37;;;;;;;-0.58;88.78;99321.44;5078461;28;20449;-69
2022/01/27 06:24:11;;;;;;;29.23;17.80;;;;;;;-0.54;89.11;99315.03;5078245;28;20795;-69
2022/01/27 06:26:37;;;;;;;28.70;16.77;;;;;;;-0.48;88.92;99319.78;5078753;28;20448;-69
2022/01/27 06:29:05;;;;;;;25.93;17.10;;;;;;;-0.50;88.01;99311.22;5078630;28;20436;-69
2022/01/27 06:31:31;;;;;;;24.63;15.63;;;;;;;-0.50;87.79;99315.59;5078405;28;20461;-69
2022/01/27 06:33:58;;;;;;;23.90;15.37;;;;;;;-0.50;87.20;99313.84;5078042;28;20417;-69
2022/01/27 06:36:24;;;;;;;24.00;15.20;;;;;;;-0.45;87.25;99324.75;5077964;28;20466;-69
2022/01/27 06:38:50;;;;;;;23.53;14.93;;;;;;;-0.49;88.07;99335.56;5078372;28;20417;-69
2022/01/27 06:41:17;;;;;;;22.23;14.97;;;;;;;-0.51;87.33;99330.47;5077968;28;20453;-69
2022/01/27 06:43:43;;;;;;;24.57;15.80;;;;;;;-0.55;88.15;99336.03;5077826;28;20516;-69
2022/01/27 06:46:10;;;;;;;21.30;13.73;;;;;;;-0.37;87.47;99335.44;5077796;28;20417;-69
2022/01/27 06:48:36;;;;;;;24.97;15.53;;;;;;;-0.30;86.63;99326.16;5077896;28;20200;-69
2022/01/27 06:51:05;;;;;;;21.87;14.50;;;;;;;-0.45;86.67;99339.63;5078097;28;20552;-69
2022/01/27 06:53:32;;;;;;;26.70;15.87;;;;;;;-0.54;87.74;99328.06;5077777;28;20728;-68
2022/01/27 06:55:58;;;;;;;26.60;15.67;;;;;;;-0.63;87.26;99328.78;5078167;28;20472;-68
2022/01/27 06:58:25;;;;;;;24.10;16.10;;;;;;;-0.50;87.27;99326.91;5078123;28;20422;-68
2022/01/27 07:00:51;;;;;;;24.13;15.83;;;;;;;-0.59;88.58;99335.44;5077520;28;20453;-69
2022/01/27 07:03:17;;;;;;;24.57;16.03;;;;;;;-0.64;88.09;99334.13;5077970;28;20713;-69
2022/01/27 07:05:44;;;;;;;26.43;16.63;;;;;;;-0.56;88.20;99323.94;5077822;28;20413;-69
2022/01/27 07:08:10;;;;;;;27.30;17.10;;;;;;;-0.62;88.54;99325.22;5077487;28;20482;-69
2022/01/27 07:10:37;;;;;;;32.13;17.83;;;;;;;-0.59;88.74;99334.59;5077774;28;20460;-69
2022/01/27 07:13:04;;;;;;;33.47;18.33;;;;;;;-0.62;88.92;99337.47;5077301;28;20433;-69
2022/01/27 07:15:30;;;;;;;32.13;19.47;;;;;;;-0.64;89.76;99347.19;5077408;28;20515;-69
2022/01/27 07:17:57;;;;;;;35.47;20.23;;;;;;;-0.54;89.19;99348.16;5077770;28;20433;-69
2022/01/27 07:20:23;;;;;;;39.20;21.90;;;;;;;-0.65;90.67;99346.38;5077636;28;20453;-69
2022/01/27 07:22:52;;;;;;;36.60;20.70;;;;;;;-0.60;89.78;99341.63;5077673;28;20418;-69
2022/01/27 07:25:18;;;;;;;38.73;20.40;;;;;;;-0.58;89.96;99357.19;5077651;28;20428;-69
2022/01/27 07:27:45;;;;;;;38.37;21.93;;;;;;;-0.67;90.66;99343.03;5077280;28;20422;-69
2022/01/27 07:30:11;;;;;;;35.90;20.90;;;;;;;-0.52;89.41;99354.94;5077252;28;20471;-69
2022/01/27 07:32:38;;;;;;;38.80;19.97;;;;;;;-0.59;89.62;99351.13;5076878;28;20808;-69
2022/01/27 07:35:05;;;;;;;38.93;20.70;;;;;;;-0.62;89.62;99346.13;5077076;28;20470;-69
2022/01/27 07:37:32;;;;;;;38.30;20.70;;;;;;;-0.71;91.36;99346.00;5076899;28;20471;-70
2022/01/27 07:39:58;;;;;;;38.97;21.60;;;;;;;-0.64;91.46;99352.41;5076932;28;20433;-68
2022/01/27 07:42:25;;;;;;;37.03;20.60;;;;;;;-0.73;89.69;99356.56;5076881;28;20424;-68
2022/01/27 07:44:51;;;;;;;35.60;18.97;;;;;;;-0.62;89.44;99360.97;5076646;28;20837;-69
2022/01/27 07:47:17;;;;;;;29.73;16.83;;;;;;;-0.58;87.91;99357.19;5076943;28;20420;-70
2022/01/27 07:49:44;;;;;;;30.23;17.43;;;;;;;-0.68;88.22;99362.25;5076984;28;20422;-69
2022/01/27 07:52:10;;;;;;;34.97;19.03;;;;;;;-0.81;89.97;99361.53;5076981;28;20449;-69
2022/01/27 07:54:37;;;;;;;34.43;17.73;;;;;;;-0.81;88.70;99360.72;5077169;28;20429;-69
2022/01/27 07:57:04;;;;;;;33.20;17.37;;;;;;;-0.90;89.49;99354.41;5076487;28;20457;-68
2022/01/27 07:59:30;;;;;;;31.40;18.33;;;;;;;-1.13;89.42;99363.13;5077023;28;20422;-69
2022/01/27 08:01:56;;;;;;;30.37;17.40;;;;;;;-0.96;89.40;99356.63;5076764;28;20458;-69
2022/01/27 08:04:24;;;;;;;33.10;19.37;;;;;;;-1.02;89.34;99349.28;5076766;28;20432;-69
2022/01/27 08:06:50;;;;;;;38.33;19.50;;;;;;;-1.13;89.34;99355.28;5076923;28;20422;-68
2022/01/27 08:09:17;;;;;;;36.83;19.70;;;;;;;-1.05;90.50;99352.94;5076876;28;20428;-69
2022/01/27 08:11:44;;;;;;;38.27;19.30;;;;;;;-1.06;90.27;99356.50;5076581;28;20449;-69
2022/01/27 08:14:10;;;;;;;35.57;19.13;;;;;;;-1.12;90.07;99356.13;5076427;28;20750;-69
2022/01/27 08:16:36;;;;;;;35.37;18.33;;;;;;;-1.09;89.13;99367.16;5076698;28;20553;-69
2022/01/27 08:19:03;;;;;;;30.73;16.43;;;;;;;-1.20;88.95;99368.91;5076544;28;20517;-69
2022/01/27 08:21:29;;;;;;;33.57;16.87;;;;;;;-1.17;88.83;99364.28;5076689;28;20457;-69
2022/01/27 08:23:56;;;;;;;31.03;17.77;;;;;;;-1.27;89.09;99365.94;5075942;28;20428;-69
2022/01/27 08:26:32;;;;;;;32.93;16.57;;;;;;;-1.22;88.32;99365.59;5076284;28;20459;-69
2022/01/27 08:29:09;;;;;;;35.60;18.07;;;;;;;-1.28;89.31;99359.06;5076419;28;20421;-69
2022/01/27 08:31:43;;;;;;;36.33;18.23;;;;;;;-1.16;89.81;99360.75;5076285;28;20453;-69
2022/01/27 08:34:15;;;;;;;32.43;17.20;;;;;;;-1.20;89.53;99361.09;5076276;28;20716;-69
2022/01/27 08:36:43;;;;;;;34.17;18.03;;;;;;;-1.07;88.88;99367.06;5075938;28;20464;-69
2022/01/27 08:39:10;;;;;;;37.23;18.80;;;;;;;-1.18;89.53;99364.41;5076510;28;20762;-69
2022/01/27 08:41:36;;;;;;;31.87;17.10;;;;;;;-1.17;89.18;99363.47;5076187;28;20567;-69
2022/01/27 08:44:03;;;;;;;34.47;18.13;;;;;;;-1.02;89.46;99357.94;5076277;28;20417;-69
2022/01/27 08:46:29;;;;;;;36.90;18.13;;;;;;;-0.97;89.76;99358.44;5075932;28;20797;-69
2022/01/27 08:48:56;;;;;;;34.33;17.60;;;;;;;-0.76;88.14;99361.19;5075881;28;20422;-69
2022/01/27 08:51:22;;;;;;;30.70;16.07;;;;;;;-1.00;88.37;99350.81;5076180;28;20468;-69
2022/01/27 08:53:50;;;;;;;34.63;18.07;;;;;;;-1.04;88.45;99340.75;5076172;28;20425;-69
2022/01/27 08:56:17;;;;;;;37.27;17.90;;;;;;;-0.94;88.12;99341.72;5076258;28;20461;-69
2022/01/27 08:58:43;;;;;;;34.07;16.90;;;;;;;-0.69;87.06;99352.78;5075816;28;20705;-69
2022/01/27 09:01:09;;;;;;;33.50;15.70;;;;;;;-0.64;86.88;99358.47;5076151;28;20460;-69
2022/01/27 09:03:36;;;;;;;31.67;16.70;;;;;;;-0.64;87.04;99348.03;5076265;28;20424;-69
2022/01/27 09:06:02;;;;;;;32.43;16.63;;;;;;;-0.49;86.38;99341.59;5076218;28;20422;-69
2022/01/27 09:08:29;;;;;;;27.03;14.20;;;;;;;-0.51;86.14;99338.31;5076127;28;20486;-69
2022/01/27 09:10:55;;;;;;;23.93;13.57;;;;;;;-0.37;86.12;99340.66;5076056;28;20525;-69
2022/01/27 09:13:21;;;;;;;26.43;14.60;;;;;;;-0.22;85.53;99334.22;5075925;28;20417;-69
2022/01/27 09:15:50;;;;;;;17.30;10.67;;;;;;;-0.14;85.22;99329.25;5075362;28;20475;-69
2022/01/27 09:18:17;;;;;;;16.33;9.73;;;;;;;0.01;84.65;99329.81;5076079;28;20783;-69
2022/01/27 09:20:45;;;;;;;22.43;12.03;;;;;;;0.10;84.87;99323.84;5076124;28;20464;-69
2022/01/27 09:23:14;;;;;;;24.27;13.10;;;;;;;-0.06;84.04;99328.63;5075938;28;20512;-69
2022/01/27 09:25:44;;;;;;;22.70;13.80;;;;;;;0.06;84.24;99325.84;5075853;28;20510;-69
2022/01/27 09:28:14;;;;;;;22.50;12.43;;;;;;;0.06;84.21;99331.09;5075633;28;20513;-69
2022/01/27 09:30:42;;;;;;;23.07;13.80;;;;;;;0.10;84.87;99335.13;5075592;28;20768;-69
2022/01/27 09:33:08;;;;;;;26.00;12.77;;;;;;;0.19;83.65;99334.38;5075712;28;20184;-69
2022/01/27 09:35:36;;;;;;;21.83;12.23;;;;;;;0.21;84.01;99333.47;5075778;28;20196;-69
2022/01/27 09:38:02;;;;;;;21.23;11.87;;;;;;;0.22;84.14;99336.75;5079856;28;20208;-69
2022/01/27 09:40:30;;;;;;;20.23;12.00;;;;;;;0.27;83.75;99331.16;5079558;28;20225;-69
2022/01/27 09:42:57;;;;;;;19.27;11.50;;;;;;;0.28;83.83;99322.38;5079408;28;20189;-69
2022/01/27 09:45:27;;;;;;;23.30;12.23;;;;;;;0.37;84.97;99320.78;5079668;28;20489;-69
2022/01/27 09:47:59;;;;;;;19.00;12.00;;;;;;;0.43;83.93;99318.50;5079748;28;20216;-69
2022/01/27 09:50:36;;;;;;;22.57;12.33;;;;;;;0.50;85.75;99317.06;5079249;28;20267;-69
2022/01/27 09:53:04;;;;;;;19.27;11.00;;;;;;;0.53;85.28;99314.16;5079534;28;20185;-69
2022/01/27 09:55:30;;;;;;;16.70;10.57;;;;;;;0.64;85.38;99313.28;5079184;28;20584;-69
2022/01/27 09:57:58;;;;;;;18.97;10.77;;;;;;;0.61;85.51;99317.00;5079471;28;20216;-69
2022/01/27 10:00:25;;;;;;;20.10;10.67;;;;;;;0.61;85.28;99314.38;5079261;28;20221;-69
2022/01/27 10:03:13;;;;;;;17.13;11.07;;;;;;;0.58;84.92;99306.78;5078986;28;20611;-69
2022/01/27 10:05:41;;;;;;;18.60;10.87;;;;;;;0.60;84.71;99299.66;5079230;28;20501;-69
2022/01/27 10:08:19;;;;;;;17.37;10.27;;;;;;;0.63;84.93;99301.19;5079269;28;20185;-69
2022/01/27 10:10:50;;;;;;;17.87;10.80;;;;;;;0.80;84.76;99301.44;5078926;28;20518;-69
2022/01/27 10:13:32;;;;;;;18.90;10.37;;;;;;;0.76;85.06;99297.41;5078874;28;20280;-69
2022/01/27 10:15:59;;;;;;;17.10;10.63;;;;;;;0.95;84.88;99294.09;5078666;28;20302;-69
2022/01/27 10:18:27;;;;;;;16.80;10.20;;;;;;;0.80;84.65;99282.28;5078955;28;20293;-69
2022/01/27 10:21:00;;;;;;;17.47;10.30;;;;;;;0.83;85.31;99282.03;5078964;28;20315;-70
2022/01/27 10:23:33;;;;;;;16.37;9.83;;;;;;;0.94;85.01;99279.34;5079053;28;20197;-69
2022/01/27 10:26:23;;;;;;;17.37;10.80;;;;;;;1.04;84.29;99277.59;5078505;28;20584;-69
2022/01/27 10:29:00;;;;;;;17.33;11.03;;;;;;;1.10;84.14;99284.94;5078979;28;20266;-69
2022/01/27 10:31:28;;;;;;;16.30;10.53;;;;;;;1.17;84.45;99275.63;5078650;28;20221;-69
2022/01/27 10:34:03;;;;;;;17.67;10.37;;;;;;;1.06;84.25;99278.28;5078811;28;20279;-69
2022/01/27 10:36:36;;;;;;;16.47;9.67;;;;;;;1.08;84.24;99279.00;5078543;28;20204;-69
2022/01/27 10:39:16;;;;;;;14.97;9.63;;;;;;;1.17;84.36;99262.50;5078627;28;20216;-69
2022/01/27 10:41:59;;;;;;;16.50;9.80;;;;;;;1.17;84.59;99260.72;5078513;28;20224;-69
2022/01/27 10:44:36;;;;;;;16.07;9.03;;;;;;;1.16;84.58;99268.69;5078367;28;20188;-69
2022/01/27 10:47:14;;;;;;;14.53;8.87;;;;;;;1.24;84.99;99274.13;5078243;28;20230;-69
2022/01/27 10:49:45;;;;;;;13.00;8.97;;;;;;;1.28;85.09;99265.88;5078426;28;20192;-69
2022/01/27 10:52:13;;;;;;;13.00;8.37;;;;;;;1.44;84.54;99270.63;5078025;28;20217;-69
2022/01/27 10:54:43;;;;;;;13.50;8.40;;;;;;;1.43;84.73;99267.16;5078144;28;20610;-70
2022/01/27 10:57:11;;;;;;;15.00;9.17;;;;;;;1.33;84.95;99263.69;5078363;28;20213;-70
2022/01/27 10:59:39;;;;;;;12.10;7.97;;;;;;;1.44;84.91;99266.19;5078287;28;20188;-70
2022/01/27 11:02:09;;;;;;;12.87;8.37;;;;;;;1.44;84.87;99265.38;5077991;28;20669;-70
2022/01/27 11:04:40;;;;;;;13.23;8.83;;;;;;;1.58;84.84;99265.03;5077985;28;20199;-70
2022/01/27 11:07:10;;;;;;;11.87;8.13;;;;;;;1.59;84.35;99258.81;5077789;28;20185;-71
2022/01/27 11:09:39;;;;;;;14.60;8.80;;;;;;;1.68;84.67;99256.22;5078087;28;20192;-70
2022/01/27 11:12:10;;;;;;;14.77;8.47;;;;;;;1.70;85.33;99254.28;5077797;28;20315;-69
2022/01/27 11:14:38;;;;;;;13.23;8.63;;;;;;;1.70;84.40;99256.06;5077261;28;20242;-70
2022/01/27 11:17:09;;;;;;;13.90;8.77;;;;;;;1.80;84.77;99251.69;5077670;28;20247;-70
2022/01/27 11:22:40;;;;;;;13.50;9.63;;;;;;;1.74;85.13;99246.97;5068682;28;20216;-70
2022/01/27 11:25:49;;;;;;;12.40;8.23;;;;;;;1.88;84.31;99238.72;5077410;28;20189;-69
2022/01/27 11:28:00;;;;;;;12.77;8.97;;;;;;;1.87;84.60;99245.78;5077041;28;20220;-70
2022/01/27 11:30:43;;;;;;;12.23;8.23;;;;;;;1.85;84.60;99229.34;5077092;28;20670;-70
2022/01/27 11:33:13;;;;;;;14.17;9.07;;;;;;;1.99;84.22;99233.38;5060463;28;20576;-71
2022/01/27 11:35:40;;;;;;;15.33;9.43;;;;;;;2.00;83.30;99230.63;5057554;28;20203;-70
2022/01/27 11:38:08;;;;;;;13.67;9.10;;;;;;;1.86;84.10;99228.38;5057439;28;20288;-70
2022/01/27 11:40:39;;;;;;;12.53;8.87;;;;;;;1.94;83.25;99231.13;5057481;28;20232;-70
2022/01/27 11:43:14;;;;;;;12.30;9.17;;;;;;;1.90;83.20;99226.31;5057322;28;20209;-69
2022/01/27 11:45:48;;;;;;;14.30;9.00;;;;;;;1.96;83.22;99221.34;5057490;28;20201;-69
2022/01/27 11:48:22;;;;;;;15.20;9.50;;;;;;;2.02;82.99;99225.19;5057227;28;20195;-69
2022/01/27 11:51:09;;;;;;;11.93;8.77;;;;;;;1.99;83.18;99217.63;5057102;28;20225;-69
2022/01/27 11:53:48;;;;;;;13.57;8.97;;;;;;;2.00;83.64;99219.28;5057122;28;20185;-69
2022/01/27 11:56:24;;;;;;;13.23;8.40;;;;;;;2.06;83.13;99221.34;5057120;28;20375;-70
2022/01/27 11:58:53;;;;;;;15.13;10.07;;;;;;;2.12;82.98;99220.81;5055992;28;20213;-69
2022/01/27 12:01:23;;;;;;;11.30;8.87;;;;;;;2.22;82.65;99209.34;5056922;28;20221;-70
2022/01/27 12:04:06;;;;;;;11.57;8.70;;;;;;;2.32;82.42;99202.31;5056929;28;20280;-69